sensor_id;sensor_type;location;lat;lon;timestamp;pressure;altitude;pressure_sealevel;temperature;humidity
56420;BME280;42323;52.170;7.538;2022-07-24T00:01:55;101541.19;;;18.38;100.00
56420;BME280;42323;52.170;7.538;2022-07-24T00:04:22;101532.44;;;18.36;100.00
56420;BME280;42323;52.170;7.538;2022-07-24T00:06:49;101540.34;;;18.38;100.00
56420;BME280;42323;52.170;7.538;2022-07-24T00:09:16;101544.25;;;18.35;100.00
56420;BME280;42323;52.170;7.538;2022-07-24T00:11:43;101539.88;;;18.34;100.00
56420;BME280;42323;52.170;7.538;2022-07-24T00:14:10;101541.91;;;18.32;100.00
56420;BME280;42323;52.170;7.538;2022-07-24T00:16:37;101535.22;;;18.28;100.00
56420;BME280;42323;52.170;7.538;2022-07-24T00:19:04;101534.19;;;18.29;100.00
56420;BME280;42323;52.170;7.538;2022-07-24T00:21:32;101528.53;;;18.24;100.00
56420;BME280;42323;52.170;7.538;2022-07-24T00:23:59;101532.63;;;18.20;100.00
56420;BME280;42323;52.170;7.538;2022-07-24T00:26:26;101533.16;;;18.15;100.00
56420;BME280;42323;52.170;7.538;2022-07-24T00:28:53;101538.44;;;18.09;100.00
56420;BME280;42323;52.170;7.538;2022-07-24T00:31:20;101529.78;;;17.98;100.00
56420;BME280;42323;52.170;7.538;2022-07-24T00:33:47;101531.94;;;18.03;100.00
56420;BME280;42323;52.170;7.538;2022-07-24T00:36:16;101535.44;;;18.03;100.00
56420;BME280;42323;52.170;7.538;2022-07-24T00:38:43;101533.41;;;18.05;100.00
56420;BME280;42323;52.170;7.538;2022-07-24T00:41:11;101525.06;;;18.00;100.00
56420;BME280;42323;52.170;7.538;2022-07-24T00:44:04;101533.59;;;18.04;100.00
56420;BME280;42323;52.170;7.538;2022-07-24T00:46:32;101524.88;;;18.02;100.00
56420;BME280;42323;52.170;7.538;2022-07-24T00:48:59;101519.22;;;17.97;100.00
56420;BME280;42323;52.170;7.538;2022-07-24T00:51:26;101518.56;;;17.95;100.00
56420;BME280;42323;52.170;7.538;2022-07-24T00:53:53;101530.16;;;17.95;100.00
56420;BME280;42323;52.170;7.538;2022-07-24T00:56:21;101517.44;;;17.89;100.00
56420;BME280;42323;52.170;7.538;2022-07-24T00:58:48;101520.66;;;17.85;100.00
56420;BME280;42323;52.170;7.538;2022-07-24T01:01:15;101519.16;;;17.82;100.00
56420;BME280;42323;52.170;7.538;2022-07-24T01:03:42;101521.38;;;17.79;100.00
56420;BME280;42323;52.170;7.538;2022-07-24T01:06:09;101509.06;;;17.61;100.00
56420;BME280;42323;52.170;7.538;2022-07-24T01:08:37;101520.28;;;17.65;100.00
56420;BME280;42323;52.170;7.538;2022-07-24T01:11:04;101515.09;;;17.63;100.00
56420;BME280;42323;52.170;7.538;2022-07-24T01:13:31;101525.84;;;17.63;100.00
56420;BME280;42323;52.170;7.538;2022-07-24T01:15:58;101518.97;;;17.61;100.00
56420;BME280;42323;52.170;7.538;2022-07-24T01:18:25;101520.72;;;17.54;100.00
56420;BME280;42323;52.170;7.538;2022-07-24T01:20:52;101508.75;;;17.56;100.00
56420;BME280;42323;52.170;7.538;2022-07-24T01:23:19;101515.34;;;17.54;100.00
56420;BME280;42323;52.170;7.538;2022-07-24T01:25:46;101517.84;;;17.55;100.00
56420;BME280;42323;52.170;7.538;2022-07-24T01:28:13;101524.41;;;17.53;100.00
56420;BME280;42323;52.170;7.538;2022-07-24T01:30:42;101518.03;;;17.54;100.00
56420;BME280;42323;52.170;7.538;2022-07-24T01:33:09;101522.38;;;17.55;100.00
56420;BME280;42323;52.170;7.538;2022-07-24T01:35:36;101520.25;;;17.50;100.00
56420;BME280;42323;52.170;7.538;2022-07-24T01:38:02;101525.16;;;17.47;100.00
56420;BME280;42323;52.170;7.538;2022-07-24T01:40:29;101513.06;;;17.42;100.00
56420;BME280;42323;52.170;7.538;2022-07-24T01:42:56;101511.09;;;17.36;100.00
56420;BME280;42323;52.170;7.538;2022-07-24T01:45:24;101510.44;;;17.34;100.00
56420;BME280;42323;52.170;7.538;2022-07-24T01:47:51;101510.97;;;17.30;100.00
56420;BME280;42323;52.170;7.538;2022-07-24T01:50:18;101506.78;;;17.27;100.00
56420;BME280;42323;52.170;7.538;2022-07-24T01:52:45;101517.53;;;17.27;100.00
56420;BME280;42323;52.170;7.538;2022-07-24T01:55:12;101505.78;;;17.28;100.00
56420;BME280;42323;52.170;7.538;2022-07-24T01:57:39;101515.22;;;17.24;100.00
56420;BME280;42323;52.170;7.538;2022-07-24T02:00:07;101506.00;;;17.19;100.00
56420;BME280;42323;52.170;7.538;2022-07-24T02:02:41;101516.91;;;17.17;100.00
56420;BME280;42323;52.170;7.538;2022-07-24T02:05:10;101519.59;;;17.17;100.00
56420;BME280;42323;52.170;7.538;2022-07-24T02:07:41;101513.75;;;17.13;100.00
56420;BME280;42323;52.170;7.538;2022-07-24T02:10:08;101513.63;;;17.07;100.00
56420;BME280;42323;52.170;7.538;2022-07-24T02:12:35;101519.66;;;17.09;100.00
56420;BME280;42323;52.170;7.538;2022-07-24T02:15:02;101508.63;;;17.04;100.00
56420;BME280;42323;52.170;7.538;2022-07-24T02:17:29;101520.69;;;17.08;100.00
56420;BME280;42323;52.170;7.538;2022-07-24T02:19:56;101516.50;;;17.05;100.00
56420;BME280;42323;52.170;7.538;2022-07-24T02:22:23;101510.50;;;16.95;100.00
56420;BME280;42323;52.170;7.538;2022-07-24T02:24:50;101507.97;;;16.94;100.00
56420;BME280;42323;52.170;7.538;2022-07-24T02:27:17;101511.84;;;16.91;100.00
56420;BME280;42323;52.170;7.538;2022-07-24T02:29:44;101509.06;;;16.84;100.00
56420;BME280;42323;52.170;7.538;2022-07-24T02:32:11;101507.38;;;16.83;100.00
56420;BME280;42323;52.170;7.538;2022-07-24T02:34:37;101513.47;;;16.77;100.00
56420;BME280;42323;52.170;7.538;2022-07-24T02:37:04;101500.69;;;16.71;100.00
56420;BME280;42323;52.170;7.538;2022-07-24T02:39:31;101498.69;;;16.65;100.00
56420;BME280;42323;52.170;7.538;2022-07-24T02:41:58;101503.56;;;16.70;100.00
56420;BME280;42323;52.170;7.538;2022-07-24T02:44:25;101491.66;;;16.64;100.00
56420;BME280;42323;52.170;7.538;2022-07-24T02:46:51;101487.28;;;16.63;100.00
56420;BME280;42323;52.170;7.538;2022-07-24T02:49:18;101487.63;;;16.60;100.00
56420;BME280;42323;52.170;7.538;2022-07-24T02:51:45;101487.50;;;16.53;100.00
56420;BME280;42323;52.170;7.538;2022-07-24T02:54:12;101484.19;;;16.43;100.00
56420;BME280;42323;52.170;7.538;2022-07-24T02:56:39;101487.53;;;16.45;100.00
56420;BME280;42323;52.170;7.538;2022-07-24T02:59:06;101478.47;;;16.46;100.00
56420;BME280;42323;52.170;7.538;2022-07-24T03:01:33;101485.97;;;16.51;100.00
56420;BME280;42323;52.170;7.538;2022-07-24T03:04:00;101475.94;;;16.45;100.00
56420;BME280;42323;52.170;7.538;2022-07-24T03:06:27;101487.34;;;16.47;100.00
56420;BME280;42323;52.170;7.538;2022-07-24T03:08:54;101488.19;;;16.47;100.00
56420;BME280;42323;52.170;7.538;2022-07-24T03:11:21;101478.31;;;16.40;100.00
56420;BME280;42323;52.170;7.538;2022-07-24T03:13:48;101486.19;;;16.41;100.00
56420;BME280;42323;52.170;7.538;2022-07-24T03:16:15;101475.47;;;16.41;100.00
56420;BME280;42323;52.170;7.538;2022-07-24T03:18:43;101475.81;;;16.38;100.00
56420;BME280;42323;52.170;7.538;2022-07-24T03:21:16;101479.03;;;16.34;100.00
56420;BME280;42323;52.170;7.538;2022-07-24T03:24:03;101479.38;;;16.31;100.00
56420;BME280;42323;52.170;7.538;2022-07-24T03:26:30;101476.69;;;16.31;100.00
56420;BME280;42323;52.170;7.538;2022-07-24T03:28:57;101472.47;;;16.28;100.00
56420;BME280;42323;52.170;7.538;2022-07-24T03:31:23;101477.00;;;16.28;100.00
56420;BME280;42323;52.170;7.538;2022-07-24T03:33:50;101477.03;;;16.19;100.00
56420;BME280;42323;52.170;7.538;2022-07-24T03:36:17;101482.41;;;16.19;100.00
56420;BME280;42323;52.170;7.538;2022-07-24T03:38:44;101487.09;;;16.17;100.00
56420;BME280;42323;52.170;7.538;2022-07-24T03:41:11;101486.44;;;16.15;100.00
56420;BME280;42323;52.170;7.538;2022-07-24T03:43:37;101491.97;;;16.14;100.00
56420;BME280;42323;52.170;7.538;2022-07-24T03:46:05;101491.50;;;16.10;100.00
56420;BME280;42323;52.170;7.538;2022-07-24T03:48:32;101490.47;;;16.11;100.00
56420;BME280;42323;52.170;7.538;2022-07-24T03:50:59;101489.81;;;16.09;100.00
56420;BME280;42323;52.170;7.538;2022-07-24T03:53:26;101482.59;;;16.10;100.00
56420;BME280;42323;52.170;7.538;2022-07-24T03:55:54;101495.34;;;16.08;100.00
56420;BME280;42323;52.170;7.538;2022-07-24T03:58:21;101498.69;;;16.10;100.00
56420;BME280;42323;52.170;7.538;2022-07-24T04:00:48;101499.53;;;16.10;100.00
56420;BME280;42323;52.170;7.538;2022-07-24T04:03:15;101504.22;;;16.16;100.00
56420;BME280;42323;52.170;7.538;2022-07-24T04:05:41;101490.97;;;16.15;100.00
56420;BME280;42323;52.170;7.538;2022-07-24T04:08:17;101495.66;;;16.21;100.00
56420;BME280;42323;52.170;7.538;2022-07-24T04:10:44;101478.56;;;16.14;100.00
56420;BME280;42323;52.170;7.538;2022-07-24T04:13:11;101493.44;;;16.24;100.00
56420;BME280;42323;52.170;7.538;2022-07-24T04:15:39;101490.25;;;16.29;100.00
56420;BME280;42323;52.170;7.538;2022-07-24T04:18:05;101483.72;;;16.23;100.00
56420;BME280;42323;52.170;7.538;2022-07-24T04:20:32;101495.97;;;16.26;100.00
56420;BME280;42323;52.170;7.538;2022-07-24T04:22:59;101496.13;;;16.24;100.00
56420;BME280;42323;52.170;7.538;2022-07-24T04:25:27;101482.91;;;16.23;100.00
56420;BME280;42323;52.170;7.538;2022-07-24T04:27:53;101486.91;;;16.27;100.00
56420;BME280;42323;52.170;7.538;2022-07-24T04:30:20;101486.59;;;16.30;100.00
56420;BME280;42323;52.170;7.538;2022-07-24T04:32:47;101486.06;;;16.35;100.00
56420;BME280;42323;52.170;7.538;2022-07-24T04:35:13;101474.84;;;16.31;100.00
56420;BME280;42323;52.170;7.538;2022-07-24T04:37:40;101484.03;;;16.37;100.00
56420;BME280;42323;52.170;7.538;2022-07-24T04:40:07;101484.03;;;16.37;100.00
56420;BME280;42323;52.170;7.538;2022-07-24T04:42:35;101470.13;;;16.33;100.00
56420;BME280;42323;52.170;7.538;2022-07-24T04:45:02;101465.25;;;16.37;100.00
56420;BME280;42323;52.170;7.538;2022-07-24T04:47:29;101483.81;;;16.46;100.00
56420;BME280;42323;52.170;7.538;2022-07-24T04:49:56;101480.78;;;16.49;100.00
56420;BME280;42323;52.170;7.538;2022-07-24T04:52:23;101474.75;;;16.47;100.00
56420;BME280;42323;52.170;7.538;2022-07-24T04:54:49;101483.81;;;16.54;100.00
56420;BME280;42323;52.170;7.538;2022-07-24T04:57:17;101473.41;;;16.51;100.00
56420;BME280;42323;52.170;7.538;2022-07-24T04:59:43;101475.41;;;16.58;100.00
56420;BME280;42323;52.170;7.538;2022-07-24T05:02:10;101477.06;;;16.59;100.00
56420;BME280;42323;52.170;7.538;2022-07-24T05:04:37;101463.19;;;16.55;100.00
56420;BME280;42323;52.170;7.538;2022-07-24T05:07:04;101466.34;;;16.59;100.00
56420;BME280;42323;52.170;7.538;2022-07-24T05:09:31;101463.13;;;16.63;100.00
56420;BME280;42323;52.170;7.538;2022-07-24T05:11:58;101467.47;;;16.72;100.00
56420;BME280;42323;52.170;7.538;2022-07-24T05:14:25;101455.91;;;16.64;100.00
56420;BME280;42323;52.170;7.538;2022-07-24T05:16:51;101465.78;;;16.71;100.00
56420;BME280;42323;52.170;7.538;2022-07-24T05:19:18;101466.31;;;16.75;100.00
56420;BME280;42323;52.170;7.538;2022-07-24T05:21:45;101457.56;;;16.73;100.00
56420;BME280;42323;52.170;7.538;2022-07-24T05:24:12;101463.56;;;16.83;100.00
56420;BME280;42323;52.170;7.538;2022-07-24T05:26:38;101468.41;;;16.88;100.00
56420;BME280;42323;52.170;7.538;2022-07-24T05:29:05;101460.66;;;16.93;100.00
56420;BME280;42323;52.170;7.538;2022-07-24T05:31:34;101453.38;;;17.01;100.00
56420;BME280;42323;52.170;7.538;2022-07-24T05:34:06;101463.41;;;17.07;100.00
56420;BME280;42323;52.170;7.538;2022-07-24T05:36:33;101452.50;;;17.09;100.00
56420;BME280;42323;52.170;7.538;2022-07-24T05:39:00;101460.16;;;17.20;100.00
56420;BME280;42323;52.170;7.538;2022-07-24T05:41:28;101454.94;;;17.19;100.00
56420;BME280;42323;52.170;7.538;2022-07-24T05:43:54;101457.22;;;17.30;100.00
56420;BME280;42323;52.170;7.538;2022-07-24T05:46:21;101467.06;;;17.37;100.00
56420;BME280;42323;52.170;7.538;2022-07-24T05:48:48;101457.59;;;17.41;100.00
56420;BME280;42323;52.170;7.538;2022-07-24T05:51:15;101460.06;;;17.51;100.00
56420;BME280;42323;52.170;7.538;2022-07-24T05:53:41;101474.28;;;17.60;100.00
56420;BME280;42323;52.170;7.538;2022-07-24T05:56:08;101458.78;;;17.62;100.00
56420;BME280;42323;52.170;7.538;2022-07-24T05:58:35;101466.66;;;17.71;100.00
56420;BME280;42323;52.170;7.538;2022-07-24T06:01:02;101470.09;;;17.80;100.00
56420;BME280;42323;52.170;7.538;2022-07-24T06:03:29;101460.25;;;17.87;100.00
56420;BME280;42323;52.170;7.538;2022-07-24T06:05:56;101462.88;;;17.95;100.00
56420;BME280;42323;52.170;7.538;2022-07-24T06:08:23;101461.13;;;18.02;100.00
56420;BME280;42323;52.170;7.538;2022-07-24T06:10:50;101447.84;;;18.01;100.00
56420;BME280;42323;52.170;7.538;2022-07-24T06:13:17;101461.34;;;18.16;100.00
56420;BME280;42323;52.170;7.538;2022-07-24T06:15:43;101444.44;;;18.22;100.00
56420;BME280;42323;52.170;7.538;2022-07-24T06:18:10;101446.19;;;18.29;100.00
56420;BME280;42323;52.170;7.538;2022-07-24T06:20:37;101438.88;;;18.38;100.00
56420;BME280;42323;52.170;7.538;2022-07-24T06:23:04;101440.81;;;18.44;100.00
56420;BME280;42323;52.170;7.538;2022-07-24T06:25:30;101438.94;;;18.59;100.00
56420;BME280;42323;52.170;7.538;2022-07-24T06:27:57;101449.25;;;18.71;100.00
56420;BME280;42323;52.170;7.538;2022-07-24T06:30:26;101437.06;;;18.75;100.00
56420;BME280;42323;52.170;7.538;2022-07-24T06:32:56;101435.53;;;18.87;100.00
56420;BME280;42323;52.170;7.538;2022-07-24T06:35:23;101447.47;;;18.99;100.00
56420;BME280;42323;52.170;7.538;2022-07-24T06:37:50;101438.56;;;18.98;100.00
56420;BME280;42323;52.170;7.538;2022-07-24T06:40:18;101437.22;;;19.09;100.00
56420;BME280;42323;52.170;7.538;2022-07-24T06:42:46;101432.94;;;19.15;100.00
56420;BME280;42323;52.170;7.538;2022-07-24T06:45:14;101440.56;;;19.33;100.00
56420;BME280;42323;52.170;7.538;2022-07-24T06:47:41;101441.53;;;19.46;100.00
56420;BME280;42323;52.170;7.538;2022-07-24T06:50:09;101410.56;;;19.42;100.00
56420;BME280;42323;52.170;7.538;2022-07-24T06:52:36;101428.22;;;19.66;100.00
56420;BME280;42323;52.170;7.538;2022-07-24T06:55:04;101432.47;;;19.75;100.00
56420;BME280;42323;52.170;7.538;2022-07-24T06:57:31;101427.53;;;19.85;100.00
56420;BME280;42323;52.170;7.538;2022-07-24T06:59:57;101428.88;;;19.96;100.00
56420;BME280;42323;52.170;7.538;2022-07-24T07:02:24;101425.56;;;20.01;100.00
56420;BME280;42323;52.170;7.538;2022-07-24T07:04:51;101423.53;;;20.09;100.00
56420;BME280;42323;52.170;7.538;2022-07-24T07:07:18;101409.88;;;20.17;100.00
56420;BME280;42323;52.170;7.538;2022-07-24T07:09:45;101415.34;;;20.31;100.00
56420;BME280;42323;52.170;7.538;2022-07-24T07:12:12;101405.38;;;20.31;100.00
56420;BME280;42323;52.170;7.538;2022-07-24T07:14:39;101413.16;;;20.47;100.00
56420;BME280;42323;52.170;7.538;2022-07-24T07:17:05;101417.97;;;20.59;100.00
56420;BME280;42323;52.170;7.538;2022-07-24T07:19:33;101410.53;;;20.67;100.00
56420;BME280;42323;52.170;7.538;2022-07-24T07:21:59;101412.25;;;20.88;100.00
56420;BME280;42323;52.170;7.538;2022-07-24T07:24:26;101417.69;;;20.95;100.00
56420;BME280;42323;52.170;7.538;2022-07-24T07:26:53;101423.53;;;21.05;100.00
56420;BME280;42323;52.170;7.538;2022-07-24T07:29:20;101410.03;;;21.12;100.00
56420;BME280;42323;52.170;7.538;2022-07-24T07:31:52;101416.53;;;21.37;100.00
56420;BME280;42323;52.170;7.538;2022-07-24T07:34:19;101397.78;;;21.42;100.00
56420;BME280;42323;52.170;7.538;2022-07-24T07:36:46;101398.41;;;21.57;100.00
56420;BME280;42323;52.170;7.538;2022-07-24T07:39:13;101398.19;;;21.65;100.00
56420;BME280;42323;52.170;7.538;2022-07-24T07:41:39;101407.31;;;21.84;100.00
56420;BME280;42323;52.170;7.538;2022-07-24T07:44:06;101404.00;;;21.95;100.00
56420;BME280;42323;52.170;7.538;2022-07-24T07:46:33;101398.16;;;21.98;100.00
56420;BME280;42323;52.170;7.538;2022-07-24T07:49:00;101407.47;;;22.22;100.00
56420;BME280;42323;52.170;7.538;2022-07-24T07:51:28;101396.41;;;22.30;100.00
56420;BME280;42323;52.170;7.538;2022-07-24T07:53:55;101397.81;;;22.40;100.00
56420;BME280;42323;52.170;7.538;2022-07-24T07:56:22;101389.63;;;22.53;100.00
56420;BME280;42323;52.170;7.538;2022-07-24T07:58:48;101394.56;;;22.62;100.00
56420;BME280;42323;52.170;7.538;2022-07-24T08:01:15;101397.44;;;22.74;100.00
56420;BME280;42323;52.170;7.538;2022-07-24T08:03:42;101394.03;;;22.92;100.00
56420;BME280;42323;52.170;7.538;2022-07-24T08:06:09;101390.06;;;22.95;100.00
56420;BME280;42323;52.170;7.538;2022-07-24T08:08:41;101393.28;;;23.10;100.00
56420;BME280;42323;52.170;7.538;2022-07-24T08:11:08;101391.56;;;23.15;100.00
56420;BME280;42323;52.170;7.538;2022-07-24T08:13:34;101397.28;;;23.32;100.00
56420;BME280;42323;52.170;7.538;2022-07-24T08:16:01;101389.19;;;23.50;100.00
56420;BME280;42323;52.170;7.538;2022-07-24T08:18:28;101386.47;;;23.57;100.00
56420;BME280;42323;52.170;7.538;2022-07-24T08:20:55;101392.13;;;23.74;100.00
56420;BME280;42323;52.170;7.538;2022-07-24T08:23:22;101388.69;;;23.85;100.00
56420;BME280;42323;52.170;7.538;2022-07-24T08:25:49;101389.88;;;23.89;100.00
56420;BME280;42323;52.170;7.538;2022-07-24T08:28:15;101396.31;;;23.95;100.00
56420;BME280;42323;52.170;7.538;2022-07-24T08:30:42;101401.09;;;23.99;100.00
56420;BME280;42323;52.170;7.538;2022-07-24T08:33:09;101390.97;;;24.06;100.00
56420;BME280;42323;52.170;7.538;2022-07-24T08:35:36;101386.13;;;24.27;100.00
56420;BME280;42323;52.170;7.538;2022-07-24T08:38:03;101398.97;;;24.38;100.00
56420;BME280;42323;52.170;7.538;2022-07-24T08:40:33;101389.13;;;24.55;100.00
56420;BME280;42323;52.170;7.538;2022-07-24T08:43:05;101383.22;;;24.58;100.00
56420;BME280;42323;52.170;7.538;2022-07-24T08:45:35;101397.38;;;24.49;100.00
56420;BME280;42323;52.170;7.538;2022-07-24T08:48:04;101392.19;;;24.47;100.00
56420;BME280;42323;52.170;7.538;2022-07-24T08:50:33;101395.75;;;24.59;100.00
56420;BME280;42323;52.170;7.538;2022-07-24T08:53:00;101393.56;;;24.68;100.00
56420;BME280;42323;52.170;7.538;2022-07-24T08:55:29;101399.22;;;24.66;100.00
56420;BME280;42323;52.170;7.538;2022-07-24T08:57:59;101378.91;;;24.69;100.00
56420;BME280;42323;52.170;7.538;2022-07-24T09:00:28;101384.84;;;24.78;100.00
56420;BME280;42323;52.170;7.538;2022-07-24T09:02:55;101382.34;;;24.76;100.00
56420;BME280;42323;52.170;7.538;2022-07-24T09:05:22;101383.59;;;24.92;100.00
56420;BME280;42323;52.170;7.538;2022-07-24T09:08:05;101374.31;;;25.11;100.00
56420;BME280;42323;52.170;7.538;2022-07-24T09:10:32;101367.59;;;25.14;100.00
56420;BME280;42323;52.170;7.538;2022-07-24T09:13:14;101369.88;;;25.40;100.00
56420;BME280;42323;52.170;7.538;2022-07-24T09:15:47;101371.41;;;25.48;100.00
56420;BME280;42323;52.170;7.538;2022-07-24T09:18:26;101366.53;;;25.50;100.00
56420;BME280;42323;52.170;7.538;2022-07-24T09:20:54;101354.69;;;25.56;100.00
56420;BME280;42323;52.170;7.538;2022-07-24T09:23:21;101380.41;;;25.60;100.00
56420;BME280;42323;52.170;7.538;2022-07-24T09:25:52;101367.06;;;25.70;100.00
56420;BME280;42323;52.170;7.538;2022-07-24T09:28:21;101359.72;;;25.71;100.00
56420;BME280;42323;52.170;7.538;2022-07-24T09:30:48;101366.81;;;25.83;100.00
56420;BME280;42323;52.170;7.538;2022-07-24T09:33:17;101345.56;;;26.09;100.00
56420;BME280;42323;52.170;7.538;2022-07-24T09:35:52;101358.31;;;26.20;98.91
56420;BME280;42323;52.170;7.538;2022-07-24T09:38:24;101343.56;;;25.92;99.51
56420;BME280;42323;52.170;7.538;2022-07-24T09:40:53;101360.09;;;26.26;100.00
56420;BME280;42323;52.170;7.538;2022-07-24T09:45:57;101358.00;;;26.45;97.27
56420;BME280;42323;52.170;7.538;2022-07-24T09:48:36;101355.88;;;26.47;97.15
56420;BME280;42323;52.170;7.538;2022-07-24T09:51:12;101359.88;;;26.56;96.98
56420;BME280;42323;52.170;7.538;2022-07-24T09:53:41;101351.38;;;26.69;96.85
56420;BME280;42323;52.170;7.538;2022-07-24T09:56:11;101355.19;;;26.68;96.12
56420;BME280;42323;52.170;7.538;2022-07-24T09:58:47;101344.84;;;27.15;95.22
56420;BME280;42323;52.170;7.538;2022-07-24T10:01:16;101353.47;;;27.41;93.31
56420;BME280;42323;52.170;7.538;2022-07-24T10:03:45;101360.41;;;27.32;92.86
56420;BME280;42323;52.170;7.538;2022-07-24T10:06:15;101351.25;;;27.76;90.25
56420;BME280;42323;52.170;7.538;2022-07-24T10:08:46;101356.53;;;27.83;87.31
56420;BME280;42323;52.170;7.538;2022-07-24T10:11:14;101355.16;;;28.02;85.93
56420;BME280;42323;52.170;7.538;2022-07-24T10:13:41;101336.09;;;28.08;84.92
56420;BME280;42323;52.170;7.538;2022-07-24T10:21:34;101364.13;;;28.42;82.65
56420;BME280;42323;52.170;7.538;2022-07-24T10:26:48;101346.06;;;28.94;78.55
56420;BME280;42323;52.170;7.538;2022-07-24T10:29:22;101340.50;;;29.48;75.12
56420;BME280;42323;52.170;7.538;2022-07-24T10:31:53;101315.63;;;29.60;73.71
56420;BME280;42323;52.170;7.538;2022-07-24T10:34:49;101326.13;;;30.36;70.68
56420;BME280;42323;52.170;7.538;2022-07-24T10:53:29;101329.13;;;31.82;60.66
56420;BME280;42323;52.170;7.538;2022-07-24T11:01:29;101310.13;;;31.85;58.68
56420;BME280;42323;52.170;7.538;2022-07-24T11:03:57;101312.66;;;32.36;57.34
56420;BME280;42323;52.170;7.538;2022-07-24T11:09:12;101333.41;;;32.63;54.76
56420;BME280;42323;52.170;7.538;2022-07-24T11:14:22;101320.03;;;31.86;54.87
56420;BME280;42323;52.170;7.538;2022-07-24T11:16:51;101333.31;;;31.44;55.61
56420;BME280;42323;52.170;7.538;2022-07-24T11:21:46;101301.38;;;31.68;56.80
56420;BME280;42323;52.170;7.538;2022-07-24T11:26:55;101294.75;;;31.84;56.08
56420;BME280;42323;52.170;7.538;2022-07-24T11:29:26;101298.34;;;32.34;55.44
56420;BME280;42323;52.170;7.538;2022-07-24T11:31:59;101303.13;;;32.63;53.97
56420;BME280;42323;52.170;7.538;2022-07-24T11:34:28;101282.38;;;32.36;53.35
56420;BME280;42323;52.170;7.538;2022-07-24T11:36:56;101291.16;;;33.11;51.85
56420;BME280;42323;52.170;7.538;2022-07-24T11:39:32;101304.88;;;33.16;51.12
56420;BME280;42323;52.170;7.538;2022-07-24T11:42:05;101301.84;;;33.18;50.22
56420;BME280;42323;52.170;7.538;2022-07-24T11:44:35;101286.47;;;32.78;50.79
56420;BME280;42323;52.170;7.538;2022-07-24T11:52:07;101292.81;;;33.41;50.96
56420;BME280;42323;52.170;7.538;2022-07-24T11:54:34;101277.22;;;33.27;49.63
56420;BME280;42323;52.170;7.538;2022-07-24T11:57:05;101287.25;;;32.88;50.34
56420;BME280;42323;52.170;7.538;2022-07-24T12:00:04;101282.41;;;32.31;51.38
56420;BME280;42323;52.170;7.538;2022-07-24T12:02:31;101274.91;;;32.76;51.51
56420;BME280;42323;52.170;7.538;2022-07-24T12:04:58;101270.91;;;32.63;50.52
56420;BME280;42323;52.170;7.538;2022-07-24T12:07:26;101258.91;;;32.05;52.20
56420;BME280;42323;52.170;7.538;2022-07-24T12:09:58;101261.41;;;32.84;49.39
56420;BME280;42323;52.170;7.538;2022-07-24T12:12:28;101265.31;;;33.36;49.13
56420;BME280;42323;52.170;7.538;2022-07-24T12:15:08;101273.34;;;33.57;49.46
56420;BME280;42323;52.170;7.538;2022-07-24T12:18:04;101261.22;;;34.19;47.17
56420;BME280;42323;52.170;7.538;2022-07-24T12:20:36;101264.22;;;34.23;45.72
56420;BME280;42323;52.170;7.538;2022-07-24T12:23:06;101256.13;;;33.89;47.06
56420;BME280;42323;52.170;7.538;2022-07-24T12:25:33;101245.78;;;34.37;44.96
56420;BME280;42323;52.170;7.538;2022-07-24T12:28:08;101239.44;;;33.32;47.92
56420;BME280;42323;52.170;7.538;2022-07-24T12:30:38;101252.09;;;32.41;48.50
56420;BME280;42323;52.170;7.538;2022-07-24T12:35:59;101233.88;;;33.37;47.83
56420;BME280;42323;52.170;7.538;2022-07-24T12:38:35;101245.22;;;33.31;47.67
56420;BME280;42323;52.170;7.538;2022-07-24T12:41:14;101226.78;;;33.02;49.05
56420;BME280;42323;52.170;7.538;2022-07-24T12:43:47;101230.31;;;33.79;46.28
56420;BME280;42323;52.170;7.538;2022-07-24T12:46:16;101186.19;;;33.79;45.90
56420;BME280;42323;52.170;7.538;2022-07-24T12:49:12;101224.34;;;34.66;43.73
56420;BME280;42323;52.170;7.538;2022-07-24T12:51:59;101208.41;;;34.45;44.67
56420;BME280;42323;52.170;7.538;2022-07-24T12:54:35;101226.97;;;34.39;44.81
56420;BME280;42323;52.170;7.538;2022-07-24T12:57:11;101212.59;;;34.42;43.74
56420;BME280;42323;52.170;7.538;2022-07-24T12:59:44;101218.63;;;34.44;43.59
56420;BME280;42323;52.170;7.538;2022-07-24T13:02:21;101227.69;;;34.63;42.46
56420;BME280;42323;52.170;7.538;2022-07-24T13:04:50;101213.19;;;34.72;42.90
56420;BME280;42323;52.170;7.538;2022-07-24T13:07:20;101210.69;;;34.89;43.67
56420;BME280;42323;52.170;7.538;2022-07-24T13:09:48;101209.22;;;33.46;45.08
56420;BME280;42323;52.170;7.538;2022-07-24T13:12:15;101205.72;;;34.39;43.87
56420;BME280;42323;52.170;7.538;2022-07-24T13:14:43;101203.03;;;34.34;43.36
56420;BME280;42323;52.170;7.538;2022-07-24T13:17:12;101208.63;;;34.48;44.28
56420;BME280;42323;52.170;7.538;2022-07-24T13:19:42;101208.13;;;33.90;44.48
56420;BME280;42323;52.170;7.538;2022-07-24T13:22:10;101198.88;;;34.18;44.72
56420;BME280;42323;52.170;7.538;2022-07-24T13:24:38;101202.97;;;34.72;43.57
56420;BME280;42323;52.170;7.538;2022-07-24T13:27:06;101200.91;;;34.64;43.46
56420;BME280;42323;52.170;7.538;2022-07-24T13:29:33;101191.97;;;34.86;42.75
56420;BME280;42323;52.170;7.538;2022-07-24T13:32:02;101202.72;;;35.28;42.33
56420;BME280;42323;52.170;7.538;2022-07-24T13:34:30;101195.91;;;35.40;41.29
56420;BME280;42323;52.170;7.538;2022-07-24T13:36:57;101184.00;;;36.03;41.44
56420;BME280;42323;52.170;7.538;2022-07-24T13:39:24;101180.69;;;36.37;40.80
56420;BME280;42323;52.170;7.538;2022-07-24T13:41:51;101176.91;;;36.10;39.39